Time;durP1;ratioP1;P1;durP2;ratioP2;P2;SDS_P1;SDS_P2;PMS_P1;PMS_P2;Temp;Humidity;BMP_temperature;BMP_pressure;BME280_temperature;BME280_humidity;BME280_pressure;Samples;Min_cycle;Max_cycle;Signal;HPM_P1;HPM_P2
2022/09/23 00:01:17;;;;;;;0.50;0.50;;;;;;;9.81;89.26;99069.81;4898356;29;20055;-79
2022/09/23 00:03:45;;;;;;;0.50;0.50;;;;;;;9.83;89.16;99070.41;4915614;29;20055;-79
2022/09/23 00:06:20;;;;;;;0.57;0.57;;;;;;;9.84;88.98;99072.03;4935941;29;20055;-79
2022/09/23 00:08:48;;;;;;;0.50;0.50;;;;;;;9.83;88.46;99073.09;4935799;29;20589;-78
2022/09/23 00:11:18;;;;;;;0.50;0.50;;;;;;;9.82;88.12;99067.94;4934293;29;20044;-80
2022/09/23 00:13:47;;;;;;;0.50;0.50;;;;;;;9.81;88.16;99066.31;4935694;29;20055;-80
2022/09/23 00:16:18;;;;;;;0.50;0.50;;;;;;;9.79;88.21;99071.91;4936023;29;20047;-79
2022/09/23 00:18:45;;;;;;;0.60;0.60;;;;;;;9.76;88.35;99072.41;4934646;29;20418;-79
2022/09/23 00:21:13;;;;;;;0.50;0.50;;;;;;;9.75;88.52;99065.38;4934632;29;20051;-79
2022/09/23 00:23:42;;;;;;;0.50;0.50;;;;;;;9.73;88.64;99068.31;4935932;29;20194;-79
2022/09/23 00:26:11;;;;;;;0.50;0.50;;;;;;;9.74;88.80;99069.94;4935406;29;20091;-79
2022/09/23 00:28:39;;;;;;;0.50;0.50;;;;;;;9.72;88.95;99072.06;4935572;29;20066;-79
2022/09/23 00:31:11;;;;;;;0.50;0.50;;;;;;;9.73;88.96;99067.50;4934538;29;20582;-79
2022/09/23 00:33:39;;;;;;;0.60;0.60;;;;;;;9.71;88.98;99066.91;4933908;29;20246;-79
2022/09/23 00:36:09;;;;;;;0.50;0.50;;;;;;;9.70;89.24;99067.97;4935313;29;20063;-80
2022/09/23 00:38:37;;;;;;;0.60;0.60;;;;;;;9.70;89.43;99074.19;4935359;29;20055;-79
2022/09/23 00:41:16;;;;;;;0.50;0.50;;;;;;;9.72;89.31;99073.91;4935242;29;20578;-78
2022/09/23 00:43:46;;;;;;;0.50;0.50;;;;;;;9.70;89.45;99076.06;4935247;29;20055;-78
2022/09/23 00:46:22;;;;;;;0.50;0.50;;;;;;;9.73;89.34;99075.56;4935477;29;20058;-79
2022/09/23 00:48:53;;;;;;;0.50;0.50;;;;;;;9.72;89.38;99076.63;4933861;29;20523;-79
2022/09/23 00:51:24;;;;;;;0.50;0.50;;;;;;;9.73;89.26;99073.69;4935292;29;20087;-78
2022/09/23 00:53:51;;;;;;;0.52;0.52;;;;;;;9.75;89.29;99070.78;4933856;29;20099;-78
2022/09/23 00:56:20;;;;;;;0.50;0.50;;;;;;;9.76;89.21;99067.00;4935010;29;20384;-79
2022/09/23 00:58:48;;;;;;;0.50;0.50;;;;;;;9.75;89.35;99074.28;4933680;29;20059;-79
2022/09/23 01:01:15;;;;;;;0.50;0.50;;;;;;;9.76;89.33;99073.22;4933486;29;20158;-79
2022/09/23 01:03:44;;;;;;;0.50;0.50;;;;;;;9.79;89.57;99071.09;4934970;29;20075;-79
2022/09/23 01:06:12;;;;;;;0.50;0.50;;;;;;;9.82;89.63;99066.03;4933987;29;20086;-79
2022/09/23 01:08:43;;;;;;;0.50;0.50;;;;;;;9.85;89.73;99070.13;4934778;29;20047;-79
2022/09/23 01:11:28;;;;;;;0.50;0.50;;;;;;;9.84;89.72;99068.53;4933304;29;20459;-79
2022/09/23 01:14:01;;;;;;;0.50;0.50;;;;;;;9.86;89.84;99071.81;4935035;29;20142;-79
2022/09/23 01:16:46;;;;;;;0.50;0.50;;;;;;;9.83;89.82;99067.69;4934789;29;20056;-79
2022/09/23 01:19:35;;;;;;;0.50;0.50;;;;;;;9.81;89.96;99067.13;4933658;29;20062;-78
2022/09/23 01:22:07;;;;;;;0.50;0.50;;;;;;;9.78;89.88;99062.22;4934375;29;20416;-79
2022/09/23 01:24:59;;;;;;;0.50;0.50;;;;;;;9.75;89.84;99068.06;4934725;29;20052;-79
2022/09/23 01:27:31;;;;;;;0.60;0.60;;;;;;;9.75;89.75;99074.28;4933098;29;20074;-79
2022/09/23 01:30:17;;;;;;;0.60;0.60;;;;;;;9.76;89.87;99075.91;4934191;29;20058;-79
2022/09/23 01:33:00;;;;;;;0.50;0.50;;;;;;;9.76;89.82;99078.59;4933038;29;20215;-79
2022/09/23 01:35:29;;;;;;;0.55;0.55;;;;;;;9.74;89.91;99078.00;4919457;29;20063;-80
2022/09/23 01:38:24;;;;;;;0.60;0.60;;;;;;;9.72;89.87;99076.63;4898813;29;20111;-80
2022/09/23 01:40:58;;;;;;;0.50;0.50;;;;;;;9.68;89.77;99080.84;4896260;29;20056;-80
2022/09/23 01:43:47;;;;;;;0.50;0.50;;;;;;;9.70;89.89;99084.94;4895677;29;20052;-80
2022/09/23 01:46:28;;;;;;;0.50;0.50;;;;;;;9.67;89.94;99084.59;4895445;29;20060;-79
2022/09/23 01:49:02;;;;;;;0.50;0.50;;;;;;;9.63;89.91;99078.06;4897009;29;20437;-79
2022/09/23 01:51:36;;;;;;;0.50;0.50;;;;;;;9.63;89.98;99081.56;4895631;29;20056;-78
2022/09/23 01:54:09;;;;;;;0.60;0.60;;;;;;;9.60;90.07;99078.53;4895384;29;20464;-79
2022/09/23 01:56:42;;;;;;;0.50;0.50;;;;;;;9.54;90.01;99067.66;4894959;29;20084;-79
2022/09/23 01:59:25;;;;;;;0.50;0.50;;;;;;;9.53;90.47;99082.16;4895104;29;20056;-79
2022/09/23 02:02:03;;;;;;;0.50;0.50;;;;;;;9.52;90.41;99082.38;4896435;29;20072;-79
2022/09/23 02:04:37;;;;;;;0.50;0.50;;;;;;;9.50;90.16;99079.94;4896709;29;20056;-79
2022/09/23 02:07:23;;;;;;;0.50;0.50;;;;;;;9.55;90.19;99082.75;4895310;29;20278;-80
2022/09/23 02:10:01;;;;;;;0.50;0.50;;;;;;;9.50;89.88;99090.72;4896173;29;20060;-78
2022/09/23 02:12:32;;;;;;;0.60;0.60;;;;;;;9.48;89.86;99090.13;4880802;29;20052;-79
2022/09/23 02:15:13;;;;;;;0.50;0.50;;;;;;;9.50;89.91;99093.41;4894983;29;20053;-78
2022/09/23 02:17:43;;;;;;;0.50;0.50;;;;;;;9.49;89.87;99091.75;4895019;29;20067;-80
2022/09/23 02:20:13;;;;;;;0.50;0.50;;;;;;;9.50;89.81;99096.09;4896283;29;20451;-79
2022/09/23 02:22:56;;;;;;;0.50;0.50;;;;;;;9.47;89.88;99087.66;4896032;29;20083;-79
2022/09/23 02:25:32;;;;;;;0.60;0.60;;;;;;;9.43;89.85;99092.69;4896020;29;20554;-79
2022/09/23 02:28:11;;;;;;;0.60;0.60;;;;;;;9.40;89.92;99090.47;4879893;29;20442;-79
2022/09/23 02:30:52;;;;;;;0.60;0.60;;;;;;;9.35;90.32;99087.69;4895212;29;20456;-79
2022/09/23 02:33:42;;;;;;;0.60;0.60;;;;;;;9.28;90.59;99090.47;4894834;29;20483;-80
2022/09/23 02:36:14;;;;;;;0.60;0.60;;;;;;;9.28;90.83;99086.97;4895268;29;20104;-78
2022/09/23 02:38:56;;;;;;;0.60;0.60;;;;;;;9.30;90.84;99095.63;4894903;29;20472;-79
2022/09/23 02:41:39;;;;;;;0.60;0.60;;;;;;;9.27;90.88;99091.53;4895235;29;20094;-79
2022/09/23 02:44:10;;;;;;;0.50;0.50;;;;;;;9.28;90.87;99089.66;4894720;29;20467;-79
2022/09/23 02:46:37;;;;;;;0.60;0.60;;;;;;;9.28;90.79;99081.59;4895907;29;20057;-79
2022/09/23 02:49:21;;;;;;;0.50;0.50;;;;;;;9.32;90.89;99090.84;4905261;29;20414;-79
2022/09/23 02:51:48;;;;;;;0.55;0.55;;;;;;;9.28;90.77;99084.28;4913385;29;20059;-79
2022/09/23 02:54:20;;;;;;;0.50;0.50;;;;;;;9.32;90.70;99093.53;4914981;29;20083;-79
2022/09/23 02:56:51;;;;;;;0.60;0.60;;;;;;;9.33;90.74;99089.78;4916718;29;20056;-80
2022/09/23 02:59:20;;;;;;;0.50;0.50;;;;;;;9.32;90.30;99093.53;4918373;29;20055;-79
2022/09/23 03:02:05;;;;;;;0.60;0.60;;;;;;;9.39;90.44;99093.41;4914585;29;20052;-79
2022/09/23 03:04:37;;;;;;;0.60;0.60;;;;;;;9.38;90.47;99091.78;4903251;29;20143;-79
2022/09/23 03:07:17;;;;;;;0.50;0.50;;;;;;;9.39;90.39;99094.22;4904342;29;20143;-79
2022/09/23 03:09:47;;;;;;;0.50;0.50;;;;;;;9.40;90.29;99101.25;4907116;29;20057;-80
2022/09/23 03:12:34;;;;;;;0.50;0.50;;;;;;;9.42;90.12;99101.84;4906382;29;20044;-79
2022/09/23 03:15:08;;;;;;;0.50;0.50;;;;;;;9.42;90.16;99095.63;4907544;29;20071;-78
2022/09/23 03:18:03;;;;;;;0.60;0.60;;;;;;;9.37;90.24;99096.34;4906196;29;20511;-79
2022/09/23 03:20:34;;;;;;;0.50;0.50;;;;;;;9.27;90.42;99098.81;4900446;29;20071;-79
2022/09/23 03:23:05;;;;;;;0.50;0.50;;;;;;;9.28;90.42;99100.44;4905609;29;20060;-80
2022/09/23 03:25:35;;;;;;;0.60;0.60;;;;;;;9.23;90.54;99101.13;4900272;29;20450;-80
2022/09/23 03:28:03;;;;;;;0.55;0.55;;;;;;;9.22;90.55;99098.69;4915758;29;20052;-79
2022/09/23 03:30:34;;;;;;;0.60;0.60;;;;;;;9.22;90.66;99099.50;4908263;29;20055;-80
2022/09/23 03:33:03;;;;;;;0.50;0.50;;;;;;;9.24;90.88;99097.41;4910923;29;20052;-80
2022/09/23 03:36:48;;;;;;;0.60;0.60;;;;;;;9.25;90.80;99092.81;4916644;29;20048;-80
2022/09/23 03:38:23;;;;;;;0.50;0.50;;;;;;;9.27;91.08;99085.34;4901303;29;20064;-79
2022/09/23 03:40:52;;;;;;;0.50;0.50;;;;;;;9.31;90.99;99087.31;4882783;29;20052;-80
2022/09/23 03:43:19;;;;;;;0.50;0.50;;;;;;;9.32;90.93;99086.28;4896891;29;20051;-78
2022/09/23 03:45:46;;;;;;;0.50;0.50;;;;;;;9.35;91.02;99092.25;4897026;29;20063;-80
2022/09/23 03:48:14;;;;;;;0.50;0.50;;;;;;;9.35;90.79;99084.97;4897870;29;20053;-79
2022/09/23 03:50:41;;;;;;;0.50;0.50;;;;;;;9.38;90.67;99079.13;4902826;29;20590;-81
2022/09/23 03:53:08;;;;;;;0.60;0.60;;;;;;;9.41;90.59;99078.66;4904282;29;20051;-80
2022/09/23 03:55:38;;;;;;;0.50;0.50;;;;;;;9.42;90.50;99082.16;4896346;29;20063;-80
2022/09/23 03:58:06;;;;;;;0.50;0.50;;;;;;;9.41;90.65;99070.56;4904660;29;20056;-81
2022/09/23 04:00:34;;;;;;;0.50;0.50;;;;;;;9.42;90.39;99071.38;4903882;29;20049;-79
2022/09/23 04:03:02;;;;;;;0.50;0.50;;;;;;;9.43;90.41;99070.34;4905876;29;20113;-80
2022/09/23 04:05:34;;;;;;;0.60;0.60;;;;;;;9.39;90.39;99067.28;4907026;29;20049;-81
2022/09/23 04:08:02;;;;;;;0.50;0.50;;;;;;;9.42;90.48;99064.13;4909394;29;20064;-81
2022/09/23 04:10:28;;;;;;;0.50;0.50;;;;;;;9.45;90.32;99063.66;4908186;29;20080;-79
2022/09/23 04:12:55;;;;;;;0.50;0.50;;;;;;;9.47;90.23;99064.25;4898640;29;20052;-81
2022/09/23 04:15:22;;;;;;;0.50;0.50;;;;;;;9.51;90.06;99059.19;4897842;29;20056;-80
2022/09/23 04:17:49;;;;;;;0.50;0.50;;;;;;;9.48;90.02;99062.38;4897549;29;20117;-80
2022/09/23 04:20:17;;;;;;;0.60;0.60;;;;;;;9.51;90.14;99056.50;4898025;29;20125;-81
2022/09/23 04:22:48;;;;;;;0.60;0.60;;;;;;;9.49;90.32;99045.94;4897774;29;20052;-80
2022/09/23 04:25:15;;;;;;;0.50;0.50;;;;;;;9.47;90.11;99040.00;4881022;29;20076;-81
2022/09/23 04:27:42;;;;;;;0.50;0.50;;;;;;;9.52;90.16;99045.50;4897159;29;20059;-81
2022/09/23 04:30:10;;;;;;;0.50;0.50;;;;;;;9.58;89.89;99040.22;4897348;29;20056;-81
2022/09/23 04:32:37;;;;;;;0.50;0.50;;;;;;;9.60;89.91;99047.00;4897221;29;20151;-81
2022/09/23 04:35:05;;;;;;;0.50;0.50;;;;;;;9.63;89.59;99046.53;4896989;29;20053;-81
2022/09/23 04:37:36;;;;;;;0.50;0.50;;;;;;;9.66;89.22;99043.34;4896222;29;20681;-81
2022/09/23 04:40:03;;;;;;;0.50;0.50;;;;;;;9.64;88.54;99042.78;4896505;29;20083;-81
2022/09/23 04:42:30;;;;;;;0.50;0.50;;;;;;;9.70;88.13;99044.53;4896026;29;20061;-80
2022/09/23 04:44:57;;;;;;;0.50;0.50;;;;;;;9.74;87.66;99047.56;4896800;29;20053;-80
2022/09/23 04:47:25;;;;;;;0.50;0.50;;;;;;;9.77;87.17;99045.22;4896918;29;20068;-81
2022/09/23 04:49:51;;;;;;;0.50;0.50;;;;;;;9.81;86.77;99058.22;4896432;29;20059;-80
2022/09/23 04:52:24;;;;;;;0.50;0.50;;;;;;;9.86;86.62;99051.06;4896807;29;20534;-79
2022/09/23 04:54:51;;;;;;;0.50;0.50;;;;;;;9.95;86.26;99054.16;4896438;29;20053;-79
2022/09/23 04:57:18;;;;;;;0.50;0.50;;;;;;;9.97;85.72;99052.06;4896594;29;20500;-80
2022/09/23 04:59:46;;;;;;;0.43;0.43;;;;;;;9.97;84.36;99041.28;4894962;29;20045;-80
2022/09/23 05:02:14;;;;;;;0.50;0.50;;;;;;;10.08;83.75;99048.53;4896185;29;20516;-81
2022/09/23 05:04:41;;;;;;;0.50;0.50;;;;;;;10.13;82.97;99051.31;4896608;29;20048;-80
2022/09/23 05:07:09;;;;;;;0.50;0.50;;;;;;;10.13;81.57;99055.91;4894051;29;20084;-81
2022/09/23 05:09:36;;;;;;;0.50;0.50;;;;;;;10.15;81.27;99054.59;4896854;29;20056;-81
2022/09/23 05:12:03;;;;;;;0.50;0.50;;;;;;;10.18;81.08;99056.00;4895977;29;20456;-80
2022/09/23 05:14:30;;;;;;;0.50;0.50;;;;;;;10.21;80.45;99052.81;4895641;29;20048;-81
2022/09/23 05:16:57;;;;;;;0.50;0.50;;;;;;;10.19;80.26;99057.63;4895745;29;20056;-81
2022/09/23 05:19:24;;;;;;;0.50;0.50;;;;;;;10.21;80.00;99058.22;4895364;29;20075;-79
2022/09/23 05:21:51;;;;;;;0.50;0.50;;;;;;;10.24;79.90;99065.00;4895657;29;20071;-81
2022/09/23 05:24:18;;;;;;;0.50;0.50;;;;;;;10.31;79.40;99058.44;4895252;29;20048;-81
2022/09/23 05:26:45;;;;;;;0.55;0.55;;;;;;;10.28;79.04;99058.91;4905391;29;20131;-79
2022/09/23 05:29:13;;;;;;;0.50;0.50;;;;;;;10.27;78.82;99057.22;4898100;29;20531;-81
2022/09/23 05:31:40;;;;;;;0.50;0.50;;;;;;;10.28;78.64;99055.38;4914609;29;20048;-81
2022/09/23 05:34:07;;;;;;;0.50;0.50;;;;;;;10.27;77.92;99057.22;4914467;29;20052;-80
2022/09/23 05:36:35;;;;;;;0.50;0.50;;;;;;;10.27;78.18;99051.84;4914995;29;20063;-80
2022/09/23 05:39:06;;;;;;;0.50;0.50;;;;;;;10.43;77.87;99049.44;4914303;29;20063;-81
2022/09/23 05:41:33;;;;;;;0.60;0.60;;;;;;;10.55;77.35;99047.50;4914694;29;20078;-80
2022/09/23 05:44:01;;;;;;;0.60;0.60;;;;;;;10.65;77.05;99052.28;4914613;29;20083;-81
2022/09/23 05:46:29;;;;;;;0.50;0.50;;;;;;;10.75;76.35;99055.16;4905009;29;20052;-81
2022/09/23 05:48:57;;;;;;;0.50;0.50;;;;;;;10.75;75.60;99053.25;4904570;29;20242;-81
2022/09/23 05:51:29;;;;;;;0.50;0.50;;;;;;;10.68;75.56;99049.88;4905924;29;20111;-80
2022/09/23 05:53:58;;;;;;;0.50;0.50;;;;;;;10.69;75.35;99048.84;4553961;29;10000646;-80
2022/09/23 05:56:45;;;;;;;0.50;0.50;;;;;;;10.76;75.04;99049.50;4892949;29;20049;-81
2022/09/23 05:59:14;;;;;;;0.50;0.50;;;;;;;10.89;74.60;99042.97;4891784;29;20159;-80
2022/09/23 06:01:43;;;;;;;0.50;0.50;;;;;;;11.10;73.84;99044.09;4892613;29;20072;-79
2022/09/23 06:04:13;;;;;;;0.50;0.50;;;;;;;11.09;73.12;99037.06;4896675;29;20064;-80
2022/09/23 06:06:41;;;;;;;0.50;0.50;;;;;;;11.11;73.07;99048.44;4901514;29;20048;-79
2022/09/23 06:09:13;;;;;;;0.50;0.50;;;;;;;11.18;72.58;99050.97;4900973;29;20419;-81
2022/09/23 06:11:41;;;;;;;0.50;0.50;;;;;;;11.23;72.38;99048.34;4896616;29;20053;-81
2022/09/23 06:14:10;;;;;;;0.50;0.50;;;;;;;11.25;72.54;99040.81;4892355;29;20056;-83
2022/09/23 06:16:37;;;;;;;0.60;0.60;;;;;;;11.28;72.12;99043.81;4896113;29;20048;-80
2022/09/23 06:19:06;;;;;;;0.60;0.60;;;;;;;11.46;71.53;99036.50;4907519;29;20087;-82
2022/09/23 06:21:36;;;;;;;0.60;0.60;;;;;;;11.75;70.86;99039.03;4901691;29;20063;-81
2022/09/23 06:24:05;;;;;;;0.50;0.50;;;;;;;11.91;69.92;99043.59;4901369;29;20064;-80
2022/09/23 06:26:33;;;;;;;0.60;0.60;;;;;;;12.07;69.22;99058.94;4912311;29;20048;-82
2022/09/23 06:29:03;;;;;;;0.50;0.50;;;;;;;12.22;68.97;99073.72;4881596;29;20048;-82
2022/09/23 06:31:31;;;;;;;0.52;0.52;;;;;;;12.45;68.11;99073.41;4913410;29;20155;-80
2022/09/23 06:33:59;;;;;;;0.60;0.60;;;;;;;12.61;67.47;99060.03;4911178;29;20695;-80
2022/09/23 06:36:36;;;;;;;0.50;0.50;;;;;;;12.75;66.11;99040.41;4905623;29;20519;-81
2022/09/23 06:39:14;;;;;;;0.55;0.55;;;;;;;12.66;65.93;99041.13;4900607;29;20456;-80
2022/09/23 06:41:43;;;;;;;0.60;0.60;;;;;;;12.86;65.26;99043.19;4909852;29;20087;-81
2022/09/23 06:44:13;;;;;;;0.50;0.50;;;;;;;12.73;64.90;99045.25;4906154;29;20350;-79
2022/09/23 06:46:40;;;;;;;0.60;0.60;;;;;;;12.68;65.08;99037.09;4907941;29;20059;-80
2022/09/23 06:49:10;;;;;;;0.60;0.60;;;;;;;12.64;65.23;99027.06;4906042;29;20052;-79
2022/09/23 06:51:37;;;;;;;0.50;0.50;;;;;;;12.51;65.38;99041.81;4896628;29;20072;-79
2022/09/23 06:54:05;;;;;;;0.60;0.60;;;;;;;12.71;65.50;99043.88;4911298;29;20052;-79
2022/09/23 06:56:32;;;;;;;0.60;0.60;;;;;;;12.86;64.73;99033.16;4913786;29;20149;-81
2022/09/23 06:59:06;;;;;;;0.50;0.50;;;;;;;12.82;64.86;99032.06;4917798;29;20056;-79
2022/09/23 07:01:33;;;;;;;0.50;0.50;;;;;;;12.79;64.38;99044.25;4904228;29;20104;-79
2022/09/23 07:04:04;;;;;;;0.50;0.50;;;;;;;12.61;64.22;99046.50;4912252;29;20050;-81
2022/09/23 07:06:31;;;;;;;0.50;0.50;;;;;;;12.53;64.12;99045.91;4920919;29;20575;-81
2022/09/23 07:08:59;;;;;;;0.50;0.50;;;;;;;12.42;64.91;99038.75;4894144;29;20108;-80
2022/09/23 07:11:27;;;;;;;0.50;0.50;;;;;;;12.41;65.02;99031.72;4900866;29;20076;-80
2022/09/23 07:13:54;;;;;;;0.50;0.50;;;;;;;12.49;65.06;99039.38;4915986;29;20053;-80
2022/09/23 07:16:21;;;;;;;0.50;0.50;;;;;;;12.65;64.65;99042.22;4909642;29;20108;-80
2022/09/23 07:18:48;;;;;;;0.50;0.50;;;;;;;12.70;65.03;99040.34;4905762;29;20112;-79
2022/09/23 07:21:17;;;;;;;0.50;0.50;;;;;;;12.71;64.96;99036.59;4923619;29;20048;-79
2022/09/23 07:23:46;;;;;;;0.50;0.50;;;;;;;12.58;64.70;99043.25;4917812;29;20429;-81
2022/09/23 07:26:14;;;;;;;0.50;0.50;;;;;;;12.66;64.72;99038.41;4911010;29;20095;-80
2022/09/23 07:28:41;;;;;;;0.50;0.50;;;;;;;12.68;64.66;99036.28;4907056;29;20053;-78
2022/09/23 07:31:15;;;;;;;0.60;0.60;;;;;;;12.67;64.71;99035.47;4903366;29;20048;-79
2022/09/23 07:33:55;;;;;;;0.60;0.60;;;;;;;12.67;64.50;99034.66;4904467;29;20078;-79
2022/09/23 07:36:23;;;;;;;0.50;0.50;;;;;;;12.82;64.62;99037.50;4907365;29;20060;-80
2022/09/23 07:38:50;;;;;;;0.55;0.55;;;;;;;12.79;64.41;99032.59;4903568;29;20154;-81
2022/09/23 07:41:18;;;;;;;0.60;0.60;;;;;;;13.04;63.72;99028.44;4904031;29;20422;-79
2022/09/23 07:43:46;;;;;;;0.50;0.50;;;;;;;13.21;62.83;99034.53;4917145;29;20595;-79
2022/09/23 07:46:16;;;;;;;0.52;0.52;;;;;;;13.18;63.34;99030.44;4914211;29;20052;-79
2022/09/23 07:48:44;;;;;;;0.50;0.50;;;;;;;13.34;63.26;99034.13;4916880;29;20056;-80
2022/09/23 07:51:16;;;;;;;0.60;0.60;;;;;;;13.66;62.08;99019.63;4911881;29;20063;-79
2022/09/23 07:53:47;;;;;;;0.60;0.60;;;;;;;14.00;61.11;99017.34;4904991;29;20052;-81
2022/09/23 07:56:14;;;;;;;0.60;0.60;;;;;;;14.19;60.21;99009.50;4907920;29;20068;-80
2022/09/23 07:58:41;;;;;;;0.60;0.60;;;;;;;14.38;59.53;99025.28;4920969;29;20221;-80
2022/09/23 08:01:09;;;;;;;0.52;0.52;;;;;;;14.35;59.04;99020.38;4910040;29;20180;-80
2022/09/23 08:03:38;;;;;;;0.50;0.50;;;;;;;14.48;59.25;99028.00;4906829;29;20119;-80
2022/09/23 08:06:10;;;;;;;0.50;0.50;;;;;;;14.47;59.18;99029.09;4907850;29;20056;-80
2022/09/23 08:08:42;;;;;;;0.60;0.60;;;;;;;14.25;60.08;99018.47;4902910;29;20055;-79
2022/09/23 08:11:12;;;;;;;0.60;0.60;;;;;;;14.30;60.33;99013.03;4896660;29;20235;-80
2022/09/23 08:13:39;;;;;;;0.50;0.50;;;;;;;14.25;60.00;99005.69;4906182;29;20052;-79
2022/09/23 08:16:06;;;;;;;0.57;0.57;;;;;;;14.31;59.73;99015.50;4908722;29;20139;-79
2022/09/23 08:18:34;;;;;;;0.70;0.70;;;;;;;14.49;59.34;99016.06;4904312;29;20067;-79
2022/09/23 08:21:01;;;;;;;0.70;0.70;;;;;;;14.78;58.98;99004.72;4858707;29;20056;-79
2022/09/23 08:23:32;;;;;;;0.60;0.60;;;;;;;14.89;58.22;99000.91;4907540;29;20056;-82
2022/09/23 08:26:01;;;;;;;0.50;0.50;;;;;;;14.79;58.27;99003.63;4915327;29;20052;-78
2022/09/23 08:28:28;;;;;;;0.50;0.50;;;;;;;14.45;59.11;98998.69;4915133;29;20146;-80
2022/09/23 08:30:57;;;;;;;0.50;0.50;;;;;;;14.31;59.70;99007.34;4915135;29;20119;-81
2022/09/23 08:33:24;;;;;;;0.60;0.60;;;;;;;14.42;59.87;99007.38;4911329;29;20056;-80
2022/09/23 08:35:52;;;;;;;0.50;0.50;;;;;;;14.38;60.63;99003.56;4908390;29;20495;-80
2022/09/23 08:38:19;;;;;;;0.50;0.50;;;;;;;14.23;60.52;98991.59;4907835;29;20079;-82
2022/09/23 08:40:48;;;;;;;0.50;0.50;;;;;;;13.86;61.37;99013.47;4899070;29;20052;-79
2022/09/23 08:43:30;;;;;;;0.50;0.50;;;;;;;13.53;62.52;99009.28;4912924;29;20099;-82
2022/09/23 08:46:00;;;;;;;0.50;0.50;;;;;;;13.27;63.48;99009.13;4911920;29;20135;-81
2022/09/23 08:48:46;;;;;;;0.50;0.50;;;;;;;13.41;63.44;99013.00;4906640;29;20056;-82
2022/09/23 08:51:16;;;;;;;0.50;0.50;;;;;;;13.51;62.88;99016.84;4900363;29;20084;-81
2022/09/23 08:53:45;;;;;;;0.50;0.50;;;;;;;13.37;63.45;99028.16;4896255;29;20048;-80
2022/09/23 08:56:15;;;;;;;0.50;0.50;;;;;;;13.25;63.95;99037.53;4904870;29;20055;-81
2022/09/23 08:59:20;;;;;;;0.50;0.50;;;;;;;13.17;64.50;99044.25;4904559;29;20083;-81
2022/09/23 09:02:04;;;;;;;0.50;0.50;;;;;;;13.11;64.92;99031.75;4917163;29;20482;-81
2022/09/23 09:04:34;;;;;;;0.50;0.50;;;;;;;13.17;64.88;99030.72;4913354;29;20048;-79
2022/09/23 09:07:08;;;;;;;0.40;0.40;;;;;;;13.27;64.90;99022.69;4909230;29;20056;-80
2022/09/23 09:10:40;;;;;;;0.60;0.60;;;;;;;13.49;64.07;99021.72;4915008;29;20048;-79
2022/09/23 09:13:31;;;;;;;0.50;0.50;;;;;;;13.60;63.36;99005.25;4904055;29;20085;-79
2022/09/23 09:16:19;;;;;;;0.52;0.52;;;;;;;13.57;62.46;99000.34;4893941;29;20122;-80
2022/09/23 09:19:19;;;;;;;0.50;0.50;;;;;;;13.56;62.30;98996.00;4904342;29;20146;-78
2022/09/23 09:21:51;;;;;;;0.50;0.50;;;;;;;13.71;61.77;98989.00;4918758;29;20062;-80
2022/09/23 09:24:44;;;;;;;0.50;0.50;;;;;;;13.62;61.82;98981.38;4932381;29;20357;-80
2022/09/23 09:27:12;;;;;;;0.60;0.60;;;;;;;13.76;61.83;98973.56;4930717;29;20095;-80
2022/09/23 09:29:42;;;;;;;0.60;0.60;;;;;;;13.91;60.88;98975.50;4911324;29;20048;-80
2022/09/23 09:32:22;;;;;;;0.55;0.55;;;;;;;14.09;60.06;98968.78;4926334;29;20175;-79
2022/09/23 09:34:53;;;;;;;0.60;0.60;;;;;;;14.14;59.76;98979.63;4895494;29;20056;-79
2022/09/23 09:37:32;;;;;;;0.60;0.60;;;;;;;14.37;59.71;98997.31;4890155;29;20120;-80
2022/09/23 09:39:59;;;;;;;0.50;0.50;;;;;;;14.59;58.40;98999.00;4902747;29;20101;-78
2022/09/23 09:42:37;;;;;;;0.50;0.50;;;;;;;14.66;57.55;98994.09;4910198;29;20146;-79
2022/09/23 09:45:36;;;;;;;0.50;0.50;;;;;;;14.71;57.85;98992.22;4893502;29;20056;-79
2022/09/23 09:48:10;;;;;;;0.50;0.50;;;;;;;14.80;56.85;98991.66;4902053;29;20515;-79
2022/09/23 09:50:48;;;;;;;0.50;0.50;;;;;;;14.57;57.04;98988.41;4913886;29;20056;-80
2022/09/23 09:53:26;;;;;;;0.50;0.50;;;;;;;14.36;57.52;98994.88;4912171;29;20056;-79
2022/09/23 09:55:59;;;;;;;0.50;0.50;;;;;;;14.31;57.71;98999.22;4912444;29;20431;-80
2022/09/23 09:58:43;;;;;;;0.50;0.50;;;;;;;14.20;58.07;99000.25;4906782;29;20057;-78
2022/09/23 10:01:32;;;;;;;0.50;0.50;;;;;;;14.01;58.82;98996.44;4906041;29;20135;-80
2022/09/23 10:04:05;;;;;;;0.45;0.45;;;;;;;13.95;59.20;99001.03;4896480;29;20072;-80
2022/09/23 10:06:34;;;;;;;0.50;0.50;;;;;;;13.91;58.71;99002.63;4898246;29;20048;-81
2022/09/23 10:09:10;;;;;;;0.50;0.50;;;;;;;13.93;58.68;99007.81;4899357;29;20161;-81
2022/09/23 10:11:38;;;;;;;0.50;0.50;;;;;;;13.90;58.82;99003.75;4904308;29;20064;-81
2022/09/23 10:14:16;;;;;;;0.50;0.50;;;;;;;13.93;58.87;98999.69;4906184;29;20057;-81
2022/09/23 10:16:44;;;;;;;0.50;0.50;;;;;;;14.16;58.01;98992.94;4899527;29;20497;-80
2022/09/23 10:19:25;;;;;;;0.57;0.57;;;;;;;14.33;57.63;98988.09;4901434;29;20586;-80
2022/09/23 10:21:55;;;;;;;0.60;0.60;;;;;;;14.62;56.95;98982.16;4908821;29;20071;-81
2022/09/23 10:24:31;;;;;;;0.52;0.52;;;;;;;14.87;56.41;98987.59;4910407;29;20127;-80
2022/09/23 10:27:03;;;;;;;0.60;0.60;;;;;;;15.21;55.58;98997.06;4904867;29;20052;-79
2022/09/23 10:29:37;;;;;;;0.50;0.50;;;;;;;15.63;54.25;98985.78;4916710;29;20423;-80
2022/09/23 10:32:17;;;;;;;0.50;0.50;;;;;;;15.32;54.64;98982.38;4907910;29;20166;-80
2022/09/23 10:34:49;;;;;;;0.40;0.40;;;;;;;15.11;55.44;98974.22;4907172;29;20084;-79
2022/09/23 10:37:47;;;;;;;0.40;0.40;;;;;;;14.79;55.99;98963.69;4913635;29;20053;-80
2022/09/23 10:46:44;;;;;;;0.50;0.50;;;;;;;13.98;58.48;98959.81;4905959;29;20071;-79
2022/09/23 10:49:37;;;;;;;0.50;0.50;;;;;;;14.08;58.41;98959.81;4896786;29;20060;-79
2022/09/23 10:52:08;;;;;;;0.50;0.50;;;;;;;14.26;58.03;98952.25;4909241;29;20151;-79
2022/09/23 10:54:50;;;;;;;0.60;0.60;;;;;;;14.49;57.31;98948.19;4907676;29;20100;-79
2022/09/23 10:57:41;;;;;;;0.60;0.60;;;;;;;14.76;56.19;98941.69;4902445;29;20052;-80
2022/09/23 11:00:15;;;;;;;0.60;0.60;;;;;;;14.96;55.04;98944.34;4895375;29;20076;-79
2022/09/23 11:03:22;;;;;;;0.40;0.40;;;;;;;15.27;54.63;98934.25;4909877;29;20048;-80
2022/09/23 11:06:01;;;;;;;0.60;0.60;;;;;;;15.53;52.70;98932.22;4922449;29;20091;-79
2022/09/23 11:08:31;;;;;;;0.70;0.70;;;;;;;16.22;50.83;98932.41;4900204;29;20056;-80
2022/09/23 11:11:10;;;;;;;0.60;0.60;;;;;;;16.77;48.97;98916.69;4917333;29;20048;-81
2022/09/23 11:14:06;;;;;;;0.50;0.50;;;;;;;16.73;48.84;98920.28;4910668;29;20057;-80
2022/09/23 11:17:13;;;;;;;0.50;0.50;;;;;;;16.33;49.52;98927.69;4902555;29;20056;-81
2022/09/23 11:19:49;;;;;;;0.60;0.60;;;;;;;16.13;49.75;98928.66;4912597;29;20060;-80
2022/09/23 11:22:35;;;;;;;0.80;0.80;;;;;;;17.50;46.91;98926.56;4908382;29;20056;-79
2022/09/23 11:25:15;;;;;;;0.52;0.52;;;;;;;17.59;46.82;98932.19;4917674;29;20052;-80
2022/09/23 11:28:06;;;;;;;0.50;0.50;;;;;;;17.27;47.66;98919.22;4925394;29;20056;-79
2022/09/23 11:31:10;;;;;;;0.50;0.50;;;;;;;17.15;48.12;98916.88;4902342;29;20056;-78
2022/09/23 11:33:46;;;;;;;0.40;0.40;;;;;;;16.69;48.61;98906.44;4899072;29;20393;-79
2022/09/23 11:36:31;;;;;;;0.75;0.75;;;;;;;15.73;50.78;98909.59;4906161;29;20052;-80
2022/09/23 11:39:00;;;;;;;0.40;0.40;;;;;;;15.22;51.88;98906.25;4899580;29;20531;-79
2022/09/23 11:41:30;;;;;;;0.30;0.30;;;;;;;14.81;53.41;98903.63;4896502;29;20051;-79
2022/09/23 11:44:18;;;;;;;0.40;0.40;;;;;;;14.50;54.32;98900.94;4900376;29;20052;-79
2022/09/23 11:47:00;;;;;;;0.40;0.40;;;;;;;14.21;55.13;98906.91;4918746;29;20092;-80
2022/09/23 11:49:36;;;;;;;0.40;0.40;;;;;;;13.88;56.68;98922.59;4911431;29;20462;-80
2022/09/23 11:52:23;;;;;;;0.35;0.35;;;;;;;13.81;57.27;98935.59;4917116;29;20055;-79
2022/09/23 11:54:56;;;;;;;0.40;0.40;;;;;;;13.77;57.29;98934.50;4909028;29;20096;-79
2022/09/23 11:57:30;;;;;;;0.40;0.40;;;;;;;13.74;57.93;98935.03;4912199;29;20059;-80
2022/09/23 12:00:34;;;;;;;0.50;0.50;;;;;;;13.75;58.02;98925.84;4915183;29;20052;-80
2022/09/23 12:03:04;;;;;;;0.50;0.50;;;;;;;13.77;57.49;98915.50;4909560;29;20103;-80
2022/09/23 12:05:43;;;;;;;0.40;0.40;;;;;;;13.82;56.95;98922.84;4903347;29;20048;-79
2022/09/23 12:08:20;;;;;;;0.50;0.50;;;;;;;13.81;57.09;98930.19;4910199;29;20047;-81
2022/09/23 12:11:05;;;;;;;0.50;0.50;;;;;;;13.76;57.17;98938.31;4918004;29;20047;-80
2022/09/23 12:14:02;;;;;;;0.50;0.50;;;;;;;13.60;57.56;98939.34;4908477;29;20056;-80